createdAt,value
2016-05-30T00:00:22.013Z,92.29
2016-05-30T00:01:22.047Z,92.39
2016-05-30T00:02:22.065Z,92.86
2016-05-30T00:03:21.943Z,92.1
2016-05-30T00:04:22.102Z,91.52
2016-05-30T00:05:22.136Z,91.24
2016-05-30T00:06:23.294Z,91.14
2016-05-30T00:07:22.657Z,90.56
2016-05-30T00:08:22.190Z,90.95
2016-05-30T00:09:22.193Z,91.24
2016-05-30T00:10:22.227Z,92.29
2016-05-30T00:11:22.246Z,92.86
2016-05-30T00:12:22.263Z,93.06
2016-05-30T00:13:22.282Z,93.25
2016-05-30T00:14:22.144Z,93.25
2016-05-30T00:15:22.334Z,93.25
2016-05-30T00:16:22.353Z,93.63
2016-05-30T00:17:22.356Z,93.54
2016-05-30T00:18:22.389Z,93.92
2016-05-30T00:19:22.407Z,94.31
2016-05-30T00:20:22.426Z,94.21
2016-05-30T00:21:23.084Z,94.21
2016-05-30T00:22:23.322Z,93.73
2016-05-30T00:23:22.497Z,94.12
2016-05-30T00:25:22.533Z,93.63
2016-05-30T00:26:22.550Z,93.73
2016-05-30T00:27:22.569Z,93.44
2016-05-30T00:28:22.589Z,93.63
2016-05-30T00:29:22.606Z,93.82
2016-05-30T00:30:22.641Z,93.25
2016-05-30T00:31:22.658Z,92.86
2016-05-30T00:32:22.677Z,92.96
2016-05-30T00:33:22.538Z,92.86
2016-05-30T00:34:22.713Z,92.77
2016-05-30T00:35:22.732Z,92.86
2016-05-30T00:36:23.063Z,92.77
2016-05-30T00:37:22.785Z,93.15
2016-05-30T00:38:22.787Z,93.63
2016-05-30T00:39:22.820Z,92.86
2016-05-30T00:40:22.839Z,92.29
2016-05-30T00:41:22.858Z,92.1
2016-05-30T00:42:22.891Z,92.29
2016-05-30T00:43:22.910Z,92.29
2016-05-30T00:44:22.928Z,93.15
2016-05-30T00:45:22.946Z,92.96
2016-05-30T00:46:22.965Z,93.73
2016-05-30T00:47:22.827Z,93.15
2016-05-30T00:48:22.985Z,93.44
2016-05-30T00:49:23.020Z,93.82
2016-05-30T00:50:23.054Z,93.35
2016-05-30T00:51:23.431Z,94.31
2016-05-30T00:52:23.090Z,94.31
2016-05-30T00:53:23.108Z,94.12
2016-05-30T00:54:23.126Z,94.12
2016-05-30T00:55:23.145Z,94.12
2016-05-30T00:56:23.164Z,93.63
2016-05-30T00:57:23.197Z,92.68
2016-05-30T00:58:23.200Z,92.96
2016-05-30T00:59:23.219Z,92.77
2016-05-30T01:00:23.252Z,92.29
2016-05-30T01:01:23.270Z,92.48
2016-05-30T01:02:23.288Z,92.1
2016-05-30T01:03:23.150Z,92
2016-05-30T01:04:23.341Z,91.91
2016-05-30T01:05:23.360Z,92.33
2016-05-30T01:06:24.018Z,93.1
2016-05-30T01:08:23.414Z,92.96
2016-05-30T01:09:23.432Z,92.58
2016-05-30T01:10:23.451Z,92.43
2016-05-30T01:11:23.484Z,92.63
2016-05-30T01:12:23.487Z,92.96
2016-05-30T01:13:23.521Z,92.33
2016-05-30T01:14:23.555Z,92.1
2016-05-30T01:15:23.557Z,91.81
2016-05-30T01:16:23.421Z,92.68
2016-05-30T01:17:23.610Z,93.01
2016-05-30T01:18:37.676Z,93.44
2016-05-30T01:19:23.631Z,93.63
2016-05-30T01:20:23.665Z,93.63
2016-05-30T01:21:24.106Z,94.4
2016-05-30T01:22:24.062Z,94.21
2016-05-30T01:24:23.754Z,95.17
2016-05-30T01:25:23.867Z,95.65
2016-05-30T01:26:23.792Z,94.79
2016-05-30T01:27:23.809Z,94.98
2016-05-30T01:28:23.828Z,94.88
2016-05-30T01:29:23.845Z,95.17
2016-05-30T01:30:23.880Z,95.36
2016-05-30T01:31:23.898Z,95.55
2016-05-30T01:32:23.744Z,95.46
2016-05-30T01:33:23.935Z,95.46
2016-05-30T01:34:23.937Z,95.65
2016-05-30T01:35:23.972Z,95.75
2016-05-30T01:36:23.849Z,96.08
2016-05-30T01:37:38.071Z,95.84
2016-05-30T01:38:24.026Z,96.03
2016-05-30T01:39:24.044Z,96.13
2016-05-30T01:40:38.125Z,96.51
2016-05-30T01:41:38.144Z,96.51
2016-05-30T01:42:23.959Z,96.51
2016-05-30T01:43:38.196Z,95.94
2016-05-30T01:44:24.136Z,96.61
2016-05-30T01:45:24.170Z,96.22
2016-05-30T01:46:24.188Z,96.03
2016-05-30T01:47:24.206Z,96.03
2016-05-30T01:48:24.225Z,96.32
2016-05-30T01:49:24.243Z,96.42
2016-05-30T01:50:38.324Z,96.51
2016-05-30T01:51:24.717Z,96.37
2016-05-30T01:52:24.642Z,96.22
2016-05-30T01:53:24.332Z,96.32
2016-05-30T01:54:24.350Z,96.37
2016-05-30T01:55:24.212Z,96.8
2016-05-30T01:56:24.386Z,96.75
2016-05-30T01:57:38.483Z,96.8
2016-05-30T01:58:24.439Z,96.56
2016-05-30T01:59:24.458Z,96.56
2016-05-30T02:00:38.553Z,96.99
2016-05-30T02:01:24.495Z,95.98
2016-05-30T02:02:24.528Z,96.32
2016-05-30T02:03:24.390Z,96.8
2016-05-30T02:04:24.393Z,96.89
2016-05-30T02:05:24.583Z,96.7
2016-05-30T02:06:25.274Z,96.75
2016-05-30T02:07:24.995Z,96.61
2016-05-30T02:08:24.655Z,95.98
2016-05-30T02:09:24.656Z,96.8
2016-05-30T02:10:24.691Z,96.27
2016-05-30T02:11:24.708Z,97.04
2016-05-30T02:12:24.711Z,96.56
2016-05-30T02:13:24.730Z,96.85
2016-05-30T02:14:38.826Z,96.37
2016-05-30T02:15:24.782Z,96.47
2016-05-30T02:16:24.801Z,97.33
2016-05-30T02:17:24.819Z,97.14
2016-05-30T02:18:24.852Z,97.23
2016-05-30T02:19:24.887Z,97.09
2016-05-30T02:20:24.733Z,96.85
2016-05-30T02:21:24.939Z,97.66
2016-05-30T02:22:24.910Z,97.66
2016-05-30T02:23:38.990Z,97.42
2016-05-30T02:24:24.962Z,97.61
2016-05-30T02:25:24.965Z,97.61
2016-05-30T02:26:24.999Z,97.33
2016-05-30T02:27:25.017Z,97.33
2016-05-30T02:28:25.051Z,97.42
2016-05-30T02:29:25.054Z,97.42
2016-05-30T02:30:39.134Z,97.47
2016-05-30T02:31:25.106Z,96.99
2016-05-30T02:32:25.124Z,96.85
2016-05-30T02:33:25.143Z,97.33
2016-05-30T02:34:25.161Z,97.38
2016-05-30T02:35:25.180Z,97.38
2016-05-30T02:36:25.260Z,97.33
2016-05-30T02:37:25.247Z,97.23
2016-05-30T02:38:25.235Z,97.04
2016-05-30T02:39:25.281Z,96.75
2016-05-30T02:40:25.326Z,97.42
2016-05-30T02:41:25.371Z,97.23
2016-05-30T02:42:25.417Z,96.56
2016-05-30T02:43:25.462Z,96.61
2016-05-30T02:44:25.499Z,96.66
2016-05-30T02:45:25.543Z,96.94
2016-05-30T02:46:25.555Z,96.99
2016-05-30T02:47:25.583Z,96.51
2016-05-30T02:49:25.652Z,96.22
2016-05-30T02:50:25.672Z,95.65
2016-05-30T02:51:25.882Z,95.17
2016-05-30T02:52:25.717Z,95.65
2016-05-30T02:53:25.754Z,94.88
2016-05-30T02:54:25.759Z,94.69
2016-05-30T02:55:25.794Z,94.21
2016-05-30T02:56:25.798Z,94.88
2016-05-30T02:57:25.818Z,95.07
2016-05-30T02:58:25.837Z,94.69
2016-05-30T02:59:25.872Z,94.4
2016-05-30T03:00:25.891Z,94.02
2016-05-30T03:01:25.911Z,94.79
2016-05-30T03:02:25.944Z,94.98
2016-05-30T03:03:25.964Z,94.79
2016-05-30T03:04:25.967Z,94.88
2016-05-30T03:05:25.985Z,94.69
2016-05-30T03:06:26.020Z,94.59
2016-05-30T03:07:26.037Z,94.49
2016-05-30T03:08:26.039Z,95.26
2016-05-30T03:09:25.918Z,94.88
2016-05-30T03:11:25.970Z,95.17
2016-05-30T03:12:26.129Z,94.59
2016-05-30T03:13:26.163Z,94.79
2016-05-30T03:14:26.025Z,94.79
2016-05-30T03:15:26.200Z,94.98
2016-05-30T03:16:26.203Z,94.79
2016-05-30T03:17:26.236Z,95.55
2016-05-30T03:18:26.098Z,95.07
2016-05-30T03:19:26.288Z,95.84
2016-05-30T03:20:26.307Z,96.03
2016-05-30T03:21:26.356Z,96.03
2016-05-30T03:22:26.468Z,95.94
2016-05-30T03:23:26.377Z,95.55
2016-05-30T03:24:26.224Z,95.75
2016-05-30T03:25:26.414Z,95.65
2016-05-30T03:26:26.432Z,95.84
2016-05-30T03:27:26.434Z,95.65
2016-05-30T03:28:26.469Z,96.03
2016-05-30T03:29:26.487Z,96.03
2016-05-30T03:30:26.505Z,96.03
2016-05-30T03:31:26.539Z,96.22
2016-05-30T03:32:40.604Z,96.42
2016-05-30T03:33:26.560Z,96.37
2016-05-30T03:34:26.578Z,96.42
2016-05-30T03:35:26.612Z,96.89
2016-05-30T03:36:26.506Z,96.75
2016-05-30T03:37:27.259Z,96.85
2016-05-30T03:38:26.668Z,96.56
2016-05-30T03:39:26.702Z,96.51
2016-05-30T03:40:26.703Z,96.75
2016-05-30T03:41:26.739Z,96.66
2016-05-30T03:42:26.757Z,96.8
2016-05-30T03:43:26.775Z,96.75
2016-05-30T03:44:26.622Z,96.66
2016-05-30T03:45:26.812Z,97.04
2016-05-30T03:46:26.673Z,96.42
2016-05-30T03:47:26.848Z,97.04
2016-05-30T03:48:26.866Z,96.8
2016-05-30T03:49:26.885Z,96.42
2016-05-30T03:50:35.934Z,96.51
2016-05-30T03:51:26.937Z,96.89
2016-05-30T03:52:26.971Z,96.18
2016-05-30T03:53:26.974Z,96.32
2016-05-30T03:54:26.976Z,96.22
2016-05-30T03:55:27.010Z,96.03
2016-05-30T03:56:27.029Z,96.03
2016-05-30T03:57:27.047Z,96.03
2016-05-30T03:58:27.065Z,96.03
2016-05-30T04:00:27.118Z,95.65
2016-05-30T04:01:27.135Z,95.84
2016-05-30T04:02:27.170Z,95.84
2016-05-30T04:03:27.172Z,95.84
2016-05-30T04:04:27.191Z,96.22
2016-05-30T04:05:27.224Z,96.32
2016-05-30T04:06:27.243Z,96.22
2016-05-30T04:07:27.229Z,96.32
2016-05-30T04:08:27.264Z,96.22
2016-05-30T04:09:27.298Z,96.42
2016-05-30T04:10:27.317Z,96.13
2016-05-30T04:11:27.335Z,95.75
2016-05-30T04:12:41.431Z,95.65
2016-05-30T04:13:27.386Z,95.65
2016-05-30T04:14:27.390Z,96.22
2016-05-30T04:15:27.423Z,95.46
2016-05-30T04:16:27.426Z,95.65
2016-05-30T04:17:27.445Z,95.75
2016-05-30T04:18:27.478Z,95.55
2016-05-30T04:19:27.497Z,96.03
2016-05-30T04:20:27.531Z,95.75
2016-05-30T04:21:27.549Z,95.94
2016-05-30T04:22:27.411Z,96.22
2016-05-30T04:23:27.586Z,95.75
2016-05-30T04:24:27.604Z,95.94
2016-05-30T04:25:27.607Z,96.13
2016-05-30T04:26:27.640Z,95.94
2016-05-30T04:27:27.643Z,95.84
2016-05-30T04:28:27.521Z,96.32
2016-05-30T04:29:27.695Z,96.22
2016-05-30T04:30:27.729Z,96.42
2016-05-30T04:31:27.748Z,96.8
2016-05-30T04:32:27.751Z,96.7
2016-05-30T04:33:27.784Z,96.94
2016-05-30T04:34:41.865Z,96.89
2016-05-30T04:35:41.883Z,96.37
2016-05-30T04:36:27.682Z,96.85
2016-05-30T04:37:27.874Z,97.38
2016-05-30T04:38:27.876Z,96.61
2016-05-30T04:39:27.909Z,96.99
2016-05-30T04:40:27.928Z,96.42
2016-05-30T04:41:27.790Z,96.42
2016-05-30T04:42:27.964Z,96.13
2016-05-30T04:43:27.984Z,96.03
2016-05-30T04:44:28.017Z,95.55
2016-05-30T04:45:28.035Z,95.94
2016-05-30T04:46:28.039Z,96.03
2016-05-30T04:47:28.072Z,96.13
2016-05-30T04:48:28.075Z,95.55
2016-05-30T04:49:28.109Z,95.75
2016-05-30T04:50:28.111Z,95.55
2016-05-30T04:51:28.442Z,95.55
2016-05-30T04:52:28.008Z,95.55
2016-05-30T04:53:28.197Z,95.46
2016-05-30T04:54:28.200Z,95.55
2016-05-30T04:55:28.219Z,94.98
2016-05-30T04:56:28.252Z,94.98
2016-05-30T04:57:28.255Z,95.46
2016-05-30T04:58:28.289Z,95.36
2016-05-30T04:59:28.307Z,95.36
2016-05-30T05:00:28.326Z,95.12
2016-05-30T05:01:28.344Z,94.45
2016-05-30T05:02:42.440Z,94.88
2016-05-30T05:03:28.380Z,94.79
2016-05-30T05:04:28.243Z,94.49
2016-05-30T05:05:28.432Z,94.83
2016-05-30T05:06:28.451Z,94.83
2016-05-30T05:07:28.673Z,94.45
2016-05-30T05:08:28.487Z,94.45
2016-05-30T05:09:28.350Z,94.35
2016-05-30T05:10:28.524Z,94.64
2016-05-30T05:11:28.558Z,94.35
2016-05-30T05:12:42.623Z,94.16
2016-05-30T05:13:28.595Z,94.07
2016-05-30T05:14:28.613Z,94.35
2016-05-30T05:15:28.631Z,94.26
2016-05-30T05:16:28.665Z,94.26
2016-05-30T05:17:28.668Z,93.87
2016-05-30T05:18:28.686Z,93.59
2016-05-30T05:19:28.705Z,93.87
2016-05-30T05:20:28.723Z,93.49
2016-05-30T05:21:29.117Z,93.2
2016-05-30T05:22:42.839Z,93.1
2016-05-30T05:23:28.794Z,92.82
2016-05-30T05:24:28.828Z,92.63
2016-05-30T05:25:28.846Z,92.72
2016-05-30T05:26:28.849Z,92.72
2016-05-30T05:27:28.883Z,92.82
2016-05-30T05:28:28.902Z,92.53
2016-05-30T05:29:29.122Z,92.86
2016-05-30T05:30:42.999Z,92.43
2016-05-30T05:31:28.972Z,92.72
2016-05-30T05:32:28.974Z,93.05
2016-05-30T05:33:28.993Z,93.1
2016-05-30T05:34:29.026Z,92.86
2016-05-30T05:35:29.029Z,93.1
2016-05-30T05:36:28.907Z,92.33
2016-05-30T05:37:29.800Z,92.24
2016-05-30T05:38:29.099Z,92.14
2016-05-30T05:39:29.134Z,92.43
2016-05-30T05:40:29.151Z,92.48
2016-05-30T05:41:29.155Z,92.57
2016-05-30T05:42:41.220Z,92.19
2016-05-30T05:43:29.207Z,91.9
2016-05-30T05:44:29.069Z,91.61
2016-05-30T05:45:29.243Z,92
2016-05-30T05:46:29.261Z,91.71
2016-05-30T05:47:29.312Z,91.9
2016-05-30T05:48:29.314Z,91.13
2016-05-30T05:49:29.333Z,90.75
2016-05-30T05:50:29.351Z,91.13
2016-05-30T05:51:29.384Z,91.23
2016-05-30T05:52:29.230Z,91.04
2016-05-30T05:53:29.405Z,91.13
2016-05-30T05:54:29.425Z,90.66
2016-05-30T05:55:29.442Z,90.7
2016-05-30T05:56:29.320Z,91.18
2016-05-30T05:57:29.338Z,90.46
2016-05-30T05:58:29.528Z,90.89
2016-05-30T05:59:29.735Z,90.51
2016-05-30T06:00:29.550Z,90.41
2016-05-30T06:01:29.568Z,89.83
2016-05-30T06:02:29.586Z,90.41
2016-05-30T06:03:29.621Z,89.93
2016-05-30T06:04:29.482Z,90.03
2016-05-30T06:05:29.641Z,89.83
2016-05-30T06:06:31.175Z,89.93
2016-05-30T06:07:29.693Z,89.64
2016-05-30T06:08:30.040Z,90.03
2016-05-30T06:09:29.746Z,90.12
2016-05-30T06:10:29.764Z,90.03
2016-05-30T06:11:29.798Z,90.41
2016-05-30T06:12:29.801Z,90.6
2016-05-30T06:13:29.678Z,90.46
2016-05-30T06:14:29.853Z,90.51
2016-05-30T06:15:29.715Z,90.41
2016-05-30T06:16:29.889Z,90.03
2016-05-30T06:17:29.892Z,89.83
2016-05-30T06:18:29.911Z,90.12
2016-05-30T06:19:29.944Z,90.03
2016-05-30T06:20:29.978Z,90.03
2016-05-30T06:21:30.512Z,89.54
2016-05-30T06:22:30.264Z,89.16
2016-05-30T06:23:29.877Z,89.64
2016-05-30T06:24:32.911Z,89.36
2016-05-30T06:25:30.085Z,88.39
2016-05-30T06:26:30.103Z,88.2
2016-05-30T06:27:30.122Z,88.87
2016-05-30T06:28:30.140Z,88.97
2016-05-30T06:29:30.158Z,89.01
2016-05-30T06:30:30.177Z,88.24
2016-05-30T06:31:30.210Z,88.44
2016-05-30T06:32:30.213Z,87.96
2016-05-30T06:33:30.263Z,88.24
2016-05-30T06:34:30.266Z,87.48
2016-05-30T06:35:30.269Z,87.29
2016-05-30T06:36:30.302Z,87.19
2016-05-30T06:37:30.946Z,87.57
2016-05-30T06:38:30.354Z,86.99
2016-05-30T06:39:30.357Z,86.56
2016-05-30T06:40:30.376Z,86.27
2016-05-30T06:41:30.409Z,84.92
2016-05-30T06:42:30.444Z,84.63
2016-05-30T06:43:30.462Z,84.58
2016-05-30T06:44:30.481Z,84.39
2016-05-30T06:45:30.514Z,83.91
2016-05-30T06:46:30.517Z,82.94
2016-05-30T06:47:30.551Z,82.27
2016-05-30T06:48:30.553Z,82.56
2016-05-30T06:49:30.588Z,81.88
2016-05-30T06:50:30.450Z,82.21
2016-05-30T06:51:31.327Z,81.45
2016-05-30T06:52:30.659Z,81.25
2016-05-30T06:53:30.505Z,81.16
2016-05-30T06:54:30.678Z,81.06
2016-05-30T06:55:30.714Z,80.96
2016-05-30T06:56:30.747Z,80.87
2016-05-30T06:57:30.766Z,81.25
2016-05-30T06:58:30.862Z,80.96
2016-05-30T06:59:30.786Z,80.87
2016-05-30T07:00:30.836Z,80.48
2016-05-30T07:01:30.854Z,80.52
2016-05-30T07:02:30.872Z,80.38
2016-05-30T07:03:30.891Z,80.87
2016-05-30T07:04:33.910Z,80.71
2016-05-30T07:05:30.772Z,80.87
2016-05-30T07:06:31.055Z,80.77
2016-05-30T07:07:31.089Z,80.96
2016-05-30T07:08:31.013Z,81.63
2016-05-30T07:09:30.860Z,82.27
2016-05-30T07:10:31.050Z,82.27
2016-05-30T07:11:31.054Z,83.04
2016-05-30T07:12:31.071Z,82.17
2016-05-30T07:13:31.104Z,83.04
2016-05-30T07:14:31.124Z,82.75
2016-05-30T07:15:32.517Z,83.04
2016-05-30T07:16:34.035Z,83.23
2016-05-30T07:17:31.038Z,83.33
2016-05-30T07:18:31.213Z,82.94
2016-05-30T07:19:31.246Z,83.42
2016-05-30T07:20:31.265Z,83.91
2016-05-30T07:21:31.814Z,82.9
2016-05-30T07:22:31.661Z,82.94
2016-05-30T07:23:31.320Z,83.52
2016-05-30T07:24:45.416Z,83.52
2016-05-30T07:25:32.966Z,84
2016-05-30T07:26:31.390Z,84.1
2016-05-30T07:27:31.409Z,84
2016-05-30T07:28:31.442Z,82.94
2016-05-30T07:29:31.461Z,82.94
2016-05-30T07:30:45.542Z,83.04
2016-05-30T07:31:31.497Z,83.33
2016-05-30T07:32:31.516Z,83.04
2016-05-30T07:33:31.549Z,82.27
2016-05-30T07:35:33.039Z,82.21
2016-05-30T07:36:31.792Z,82.12
2016-05-30T07:37:31.466Z,81.93
2016-05-30T07:38:45.704Z,81.63
2016-05-30T07:39:45.737Z,81.79
2016-05-30T07:40:31.678Z,82.17
2016-05-30T07:41:31.712Z,82.27
2016-05-30T07:42:31.730Z,83.04
2016-05-30T07:43:31.592Z,83.33
2016-05-30T07:44:31.768Z,83.52
2016-05-30T07:45:31.785Z,83.72
2016-05-30T07:46:31.818Z,83.81
2016-05-30T07:47:31.837Z,83.72
2016-05-30T07:48:31.871Z,84.19
2016-05-30T07:49:31.890Z,84.87
2016-05-30T07:50:31.908Z,85.35
2016-05-30T07:51:31.926Z,85.74
2016-05-30T07:52:31.944Z,86.12
2016-05-30T07:53:31.962Z,86.02
2016-05-30T07:54:31.981Z,86.65
2016-05-30T07:55:32.000Z,87.23
2016-05-30T07:56:32.034Z,87.23
2016-05-30T07:57:31.911Z,87.23
2016-05-30T07:58:32.070Z,87.52
2016-05-30T07:59:32.103Z,87.23
2016-05-30T08:00:32.122Z,88.39
2016-05-30T08:01:46.203Z,88
2016-05-30T08:02:32.159Z,88.48
2016-05-30T08:03:32.208Z,89.06
2016-05-30T08:04:46.258Z,88.73
2016-05-30T08:05:32.230Z,89.4
2016-05-30T08:06:32.247Z,89.3
2016-05-30T08:07:33.157Z,89.98
2016-05-30T08:08:32.300Z,90.07
2016-05-30T08:09:32.303Z,90.36
2016-05-30T08:10:32.337Z,90.65
2016-05-30T08:11:32.371Z,91.03
2016-05-30T08:12:32.357Z,91.22
2016-05-30T08:13:32.391Z,92.43
2016-05-30T08:14:32.410Z,92.43
2016-05-30T08:15:35.444Z,92.43
2016-05-30T08:16:32.463Z,91.99
2016-05-30T08:17:32.481Z,92.09
2016-05-30T08:18:46.562Z,91.85
2016-05-30T08:19:32.517Z,92.19
2016-05-30T08:20:32.551Z,92.38
2016-05-30T08:21:32.413Z,92.43
2016-05-30T08:22:32.448Z,92.76
2016-05-30T08:23:32.607Z,92.62
2016-05-30T08:24:32.608Z,92.52
2016-05-30T08:25:32.642Z,92.38
2016-05-30T08:26:32.661Z,91.71
2016-05-30T08:27:32.679Z,91.61
2016-05-30T08:28:32.557Z,91.32
2016-05-30T08:29:32.716Z,91.8
2016-05-30T08:30:32.750Z,91.8
2016-05-30T08:31:32.768Z,91.03
2016-05-30T08:32:32.630Z,91.03
2016-05-30T08:33:32.820Z,91.71
2016-05-30T08:34:32.839Z,92.67
2016-05-30T08:35:32.857Z,91.9
2016-05-30T08:36:32.735Z,91.61
2016-05-30T08:37:33.191Z,90.84
2016-05-30T08:38:32.927Z,90.84
2016-05-30T08:39:32.946Z,90.69
2016-05-30T08:40:32.964Z,90.31
2016-05-30T08:41:32.983Z,89.44
2016-05-30T08:42:33.017Z,89.64
2016-05-30T08:43:32.862Z,89.06
2016-05-30T08:44:47.116Z,89.06
2016-05-30T08:45:47.134Z,88.71
2016-05-30T08:46:33.105Z,88.71
2016-05-30T08:47:33.123Z,89.01
2016-05-30T08:48:33.142Z,89.01
2016-05-30T08:49:33.160Z,88.53
2016-05-30T08:50:33.163Z,88.53
2016-05-30T08:51:33.541Z,88.33
2016-05-30T08:52:33.731Z,88.14
2016-05-30T08:53:33.233Z,88.81
2016-05-30T08:54:33.267Z,88.33
2016-05-30T08:55:33.286Z,87.37
2016-05-30T08:56:33.304Z,89.15
2016-05-30T08:57:33.323Z,89.05
2016-05-30T08:58:33.185Z,89.15
2016-05-30T08:59:33.375Z,88.38
2016-05-30T09:00:33.392Z,85.58
2016-05-30T09:01:33.411Z,87.99
2016-05-30T09:02:33.430Z,86.49
2016-05-30T09:03:33.464Z,85.91
2016-05-30T09:04:33.326Z,85.63
2016-05-30T09:05:33.500Z,85.43
2016-05-30T09:06:33.363Z,84.42
2016-05-30T09:07:33.599Z,84.8
2016-05-30T09:08:33.587Z,84.22
2016-05-30T09:09:33.605Z,84.9
2016-05-30T09:10:33.623Z,84.76
2016-05-30T09:11:33.641Z,84.66
2016-05-30T09:12:33.504Z,85.43
2016-05-30T09:13:33.663Z,85.82
2016-05-30T09:14:33.696Z,84.99
2016-05-30T09:15:33.715Z,84.99
2016-05-30T09:16:33.748Z,84.95
2016-05-30T09:17:33.751Z,83.36
2016-05-30T09:18:33.785Z,84.47
2016-05-30T09:19:33.804Z,84.66
2016-05-30T09:20:33.822Z,86.11
2016-05-30T09:21:33.856Z,85.43
2016-05-30T09:22:34.359Z,85.24
2016-05-30T09:23:33.892Z,85.05
2016-05-30T09:24:33.926Z,85.53
2016-05-30T09:25:33.945Z,86.01
2016-05-30T09:26:33.979Z,85.43
2016-05-30T09:27:33.981Z,84.95
2016-05-30T09:28:34.014Z,85.82
2016-05-30T09:29:34.034Z,86.93
2016-05-30T09:30:34.052Z,86.01
2016-05-30T09:31:34.086Z,86.45
2016-05-30T09:32:34.104Z,87.22
2016-05-30T09:33:34.123Z,88.38
2016-05-30T09:34:34.141Z,87.41
2016-05-30T09:35:34.159Z,88.28
2016-05-30T09:36:34.536Z,88.71
2016-05-30T09:37:34.837Z,89.01
2016-05-30T09:39:34.247Z,88.81
2016-05-30T09:40:34.266Z,89.87
2016-05-30T09:41:34.300Z,90.55
2016-05-30T09:42:34.318Z,91.13
2016-05-30T09:43:34.338Z,90.73
2016-05-30T09:44:34.371Z,90.83
2016-05-30T09:45:34.388Z,90.93
2016-05-30T09:46:34.424Z,90.64
2016-05-30T09:47:34.426Z,90.64
2016-05-30T09:48:34.443Z,91.31
2016-05-30T09:49:34.479Z,91.22
2016-05-30T09:50:34.496Z,90.83
2016-05-30T09:51:34.515Z,90.64
2016-05-30T09:52:35.111Z,90.55
2016-05-30T09:53:34.410Z,90.55
2016-05-30T09:54:34.569Z,89.58
2016-05-30T09:55:34.603Z,89.72
2016-05-30T09:56:34.606Z,88.85
2016-05-30T09:57:34.640Z,88.57
2016-05-30T09:58:34.658Z,88.42
2016-05-30T09:59:34.676Z,88.32
2016-05-30T10:00:34.711Z,87.17
2016-05-30T10:01:34.573Z,86.15
2016-05-30T10:02:34.747Z,85.86
2016-05-30T10:03:34.766Z,85.67
2016-05-30T10:04:34.800Z,84.99
2016-05-30T10:05:34.803Z,86.1
2016-05-30T10:06:34.836Z,83.5
2016-05-30T10:07:34.839Z,83.92
2016-05-30T10:08:34.733Z,82.81
2016-05-30T10:09:34.908Z,81.26
2016-05-30T10:10:34.941Z,79.24
2016-05-30T10:11:34.959Z,79.62
2016-05-30T10:12:34.978Z,79.27
2016-05-30T10:13:34.996Z,78.11
2016-05-30T10:14:35.014Z,77.83
2016-05-30T10:15:35.049Z,78.41
2016-05-30T10:16:35.066Z,78.5
2016-05-30T10:17:35.100Z,77.92
2016-05-30T10:18:34.946Z,79.24
2016-05-30T10:19:35.121Z,80.3
2016-05-30T10:20:34.999Z,78.36
2016-05-30T10:21:35.657Z,78.27
2016-05-30T10:22:35.973Z,77.98
2016-05-30T10:23:35.226Z,77.88
2016-05-30T10:24:35.260Z,77.88
2016-05-30T10:25:35.262Z,79.24
2016-05-30T10:26:35.296Z,79.72
2016-05-30T10:27:35.315Z,80.1
2016-05-30T10:28:35.348Z,80.58
2016-05-30T10:29:35.367Z,80.45
2016-05-30T10:30:35.385Z,80.54
2016-05-30T10:31:35.419Z,80.74
2016-05-30T10:32:35.422Z,80.45
2016-05-30T10:33:35.456Z,80.99
2016-05-30T10:34:35.489Z,82.34
2016-05-30T10:35:35.523Z,81.18
2016-05-30T10:36:35.526Z,83.4
2016-05-30T10:37:35.654Z,82.43
2016-05-30T10:38:35.578Z,83.84
2016-05-30T10:39:35.581Z,83.74
2016-05-30T10:40:35.615Z,83.55
2016-05-30T10:41:35.634Z,84.22
2016-05-30T10:42:35.652Z,84.03
2016-05-30T10:43:35.686Z,84.9
2016-05-30T10:44:35.705Z,86.05
2016-05-30T10:45:35.722Z,84.8
2016-05-30T10:46:35.771Z,84.8
2016-05-30T10:47:35.775Z,82.68
2016-05-30T10:48:35.793Z,83.36
2016-05-30T10:49:35.826Z,84.56
2016-05-30T10:50:35.673Z,85.57
2016-05-30T10:51:35.864Z,85.09
2016-05-30T10:52:35.976Z,84.9
2016-05-30T10:53:35.744Z,84.8
2016-05-30T10:54:35.919Z,85.86
2016-05-30T10:55:35.952Z,84.99
2016-05-30T10:56:35.971Z,83.84
2016-05-30T10:57:36.005Z,83.74
2016-05-30T10:58:36.039Z,84.61
2016-05-30T10:59:35.901Z,84.32
2016-05-30T11:00:36.075Z,84.22
2016-05-30T11:01:36.078Z,84.61
2016-05-30T11:02:35.956Z,84.52
2016-05-30T11:03:36.130Z,83.36
2016-05-30T11:04:36.148Z,83.26
2016-05-30T11:05:36.167Z,83.36
2016-05-30T11:06:36.200Z,83.84
2016-05-30T11:07:36.203Z,82.97
2016-05-30T11:08:36.222Z,82.49
2016-05-30T11:09:36.255Z,83.07
2016-05-30T11:10:36.289Z,83.84
2016-05-30T11:11:36.308Z,84.03
2016-05-30T11:12:36.327Z,84.03
2016-05-30T11:13:36.344Z,83.84
2016-05-30T11:14:36.378Z,84.12
2016-05-30T11:15:36.381Z,84.8
2016-05-30T11:16:36.415Z,83.64
2016-05-30T11:17:36.433Z,84.76
2016-05-30T11:18:36.468Z,84.76
2016-05-30T11:19:36.486Z,84.38
2016-05-30T11:20:36.504Z,84.76
2016-05-30T11:21:37.601Z,85.43
2016-05-30T11:22:36.994Z,85.97
2016-05-30T11:23:36.591Z,85.97
2016-05-30T11:24:36.593Z,86.45
2016-05-30T11:25:36.471Z,86.26
2016-05-30T11:26:36.645Z,86.74
2016-05-30T11:27:36.648Z,86.55
2016-05-30T11:28:36.665Z,85.97
2016-05-30T11:29:36.701Z,86.07
2016-05-30T11:30:36.718Z,86.07
2016-05-30T11:31:36.737Z,86.16
2016-05-30T11:32:36.614Z,86.3
2016-05-30T11:33:36.773Z,85.82
2016-05-30T11:34:36.807Z,85.53
2016-05-30T11:35:36.826Z,84.76
2016-05-30T11:36:37.375Z,84.61
2016-05-30T11:37:36.878Z,85.67
2016-05-30T11:38:36.896Z,83.84
2016-05-30T11:39:36.931Z,84.22
2016-05-30T11:40:36.792Z,83.94
2016-05-30T11:41:36.966Z,83.36
2016-05-30T11:42:36.969Z,83.84
2016-05-30T11:43:36.847Z,83.55
2016-05-30T11:44:37.038Z,83.84
2016-05-30T11:45:37.070Z,82.39
2016-05-30T11:46:37.110Z,83.84
2016-05-30T11:47:37.148Z,83.84
2016-05-30T11:48:37.203Z,82.68
2016-05-30T11:49:37.240Z,82.49
2016-05-30T11:50:37.270Z,82.24
2016-05-30T11:51:37.155Z,81.27
2016-05-30T11:52:37.493Z,81.09
2016-05-30T11:53:37.362Z,80.69
2016-05-30T11:54:37.388Z,80.89
2016-05-30T11:55:37.410Z,80.89
2016-05-30T11:56:37.430Z,80.51
2016-05-30T11:57:37.468Z,80.54
2016-05-30T11:58:37.488Z,79.87
2016-05-30T11:59:37.494Z,80.45
2016-05-30T12:00:37.420Z,77.55
2016-05-30T12:01:37.580Z,77.94
2016-05-30T12:02:37.584Z,78.36
2016-05-30T12:03:37.635Z,77.88
2016-05-30T12:04:37.669Z,78.27
2016-05-30T12:05:37.689Z,77.98
2016-05-30T12:06:38.458Z,77.5
2016-05-30T12:07:37.711Z,77.5
2016-05-30T12:08:37.714Z,77.98
2016-05-30T12:09:37.732Z,78.36
2016-05-30T12:10:37.767Z,78.94
2016-05-30T12:11:37.801Z,78.42
2016-05-30T12:12:37.818Z,78.52
2016-05-30T12:13:37.681Z,78.61
2016-05-30T12:14:37.855Z,78.52
2016-05-30T12:15:37.873Z,79.1
2016-05-30T12:16:37.908Z,78.91
2016-05-30T12:17:37.942Z,79.49
2016-05-30T12:18:37.945Z,78.81
2016-05-30T12:19:37.978Z,78.91
2016-05-30T12:20:37.981Z,76.82
2016-05-30T12:21:38.015Z,76.72
2016-05-30T12:22:38.392Z,76.34
2016-05-30T12:23:38.052Z,75.95
2016-05-30T12:24:38.086Z,75.41
2016-05-30T12:25:38.119Z,75.85
2016-05-30T12:26:38.122Z,75.12
2016-05-30T12:27:38.156Z,72.9
2016-05-30T12:28:38.174Z,74.16
2016-05-30T12:29:38.208Z,74.25
2016-05-30T12:30:38.227Z,73.38
2016-05-30T12:31:38.245Z,72.64
2016-05-30T12:32:38.279Z,72.45
2016-05-30T12:33:38.297Z,72.3
2016-05-30T12:34:38.315Z,71.46
2016-05-30T12:35:38.334Z,68.46
2016-05-30T12:36:38.446Z,67.53
2016-05-30T12:37:38.386Z,66.56
2016-05-30T12:38:38.404Z,67.18
2016-05-30T12:39:38.266Z,66.17
2016-05-30T12:41:38.475Z,68.05
2016-05-30T12:42:38.493Z,67.56
2016-05-30T12:43:38.527Z,66.6
2016-05-30T12:44:38.530Z,66.2
2016-05-30T12:45:38.579Z,65.14
2016-05-30T12:46:38.598Z,66.4
2016-05-30T12:47:38.475Z,66.4
2016-05-30T12:48:38.698Z,65.53
2016-05-30T12:49:38.684Z,63.62
2016-05-30T12:50:38.531Z,63.92
2016-05-30T12:51:38.798Z,64.5
2016-05-30T12:52:38.614Z,64.5
2016-05-30T12:53:38.804Z,63.53
2016-05-30T12:54:38.791Z,63.07
2016-05-30T12:55:38.809Z,62.2
2016-05-30T12:56:38.687Z,62.49
2016-05-30T12:57:38.878Z,62.49
2016-05-30T12:58:38.896Z,60.55
2016-05-30T12:59:38.914Z,60.97
2016-05-30T13:00:38.932Z,61.04
2016-05-30T13:01:38.966Z,61.43
2016-05-30T13:02:38.985Z,61.04
2016-05-30T13:03:39.002Z,61.52
2016-05-30T13:04:39.037Z,61.07